Time;durP1;ratioP1;P1;durP2;ratioP2;P2;SDS_P1;SDS_P2;PMS_P1;PMS_P2;Temp;Humidity;BMP_temperature;BMP_pressure;BME280_temperature;BME280_humidity;BME280_pressure;Samples;Min_cycle;Max_cycle;Signal;HPM_P1;HPM_P2
2023/04/05 00:00:31;;;;;;;4.67;4.17;;;6.10;99.90;;;;;;5042141;28;20276;-54
2023/04/05 00:03:00;;;;;;;4.70;3.73;;;6.00;99.90;;;;;;5044579;28;20628;-53
2023/04/05 00:05:30;;;;;;;6.43;4.23;;;5.90;99.90;;;;;;5046489;28;20482;-55
2023/04/05 00:07:58;;;;;;;4.50;3.60;;;5.90;99.90;;;;;;5039517;28;20450;-54
2023/04/05 00:10:23;;;;;;;6.70;3.73;;;5.80;99.90;;;;;;5047330;28;20435;-54
2023/04/05 00:12:50;;;;;;;4.37;3.60;;;5.90;99.90;;;;;;5040688;28;20508;-54
2023/04/05 00:15:16;;;;;;;5.27;4.30;;;5.60;99.90;;;;;;5036334;28;20234;-54
2023/04/05 00:17:42;;;;;;;6.50;4.60;;;5.90;99.90;;;;;;5044918;28;20475;-54
2023/04/05 00:20:11;;;;;;;6.87;4.37;;;5.90;99.90;;;;;;5041714;28;20438;-54
2023/04/05 00:22:37;;;;;;;7.40;3.73;;;5.90;99.90;;;;;;5043038;28;20443;-53
2023/04/05 00:25:06;;;;;;;5.53;3.63;;;5.80;99.90;;;;;;5045247;28;20458;-55
2023/04/05 00:27:32;;;;;;;5.43;4.20;;;5.80;99.90;;;;;;5042235;28;20447;-54
2023/04/05 00:29:58;;;;;;;6.37;3.83;;;5.70;99.90;;;;;;5036566;28;20460;-55
2023/04/05 00:32:23;;;;;;;6.40;4.53;;;5.60;99.90;;;;;;5037037;28;20193;-54
2023/04/05 00:34:49;;;;;;;7.50;5.40;;;5.60;99.90;;;;;;5041023;28;20914;-55
2023/04/05 00:37:15;;;;;;;5.07;4.40;;;5.50;99.90;;;;;;5046804;28;20234;-54
2023/04/05 00:39:41;;;;;;;4.93;4.43;;;5.50;99.90;;;;;;5039303;28;20967;-53
2023/04/05 00:42:07;;;;;;;5.00;3.97;;;5.50;99.90;;;;;;5045271;28;22390;-53
2023/04/05 00:44:34;;;;;;;4.40;3.97;;;5.50;99.90;;;;;;5046073;28;20807;-55
2023/04/05 00:47:05;;;;;;;5.93;4.33;;;5.50;99.90;;;;;;5043848;28;20496;-54
2023/04/05 00:49:35;;;;;;;4.93;4.40;;;5.40;99.90;;;;;;5044204;28;20552;-54
2023/04/05 00:52:01;;;;;;;4.47;4.07;;;5.40;99.90;;;;;;5034885;28;20443;-55
2023/04/05 00:54:28;;;;;;;4.27;3.30;;;5.50;99.90;;;;;;5041648;28;21467;-55
2023/04/05 00:56:58;;;;;;;10.53;3.90;;;5.40;99.90;;;;;;5037898;28;20526;-54
2023/04/05 00:59:24;;;;;;;4.17;3.77;;;5.40;99.90;;;;;;5038460;28;20511;-53
2023/04/05 01:01:59;;;;;;;4.77;4.13;;;5.40;99.90;;;;;;5033025;28;20447;-54
2023/04/05 01:04:27;;;;;;;5.40;3.73;;;5.40;99.90;;;;;;5034610;28;20957;-54
2023/04/05 01:07:11;;;;;;;4.60;3.30;;;5.40;99.90;;;;;;5034731;28;20796;-52
2023/04/05 01:09:57;;;;;;;3.63;3.30;;;5.40;99.90;;;;;;5037218;28;20449;-53
2023/04/05 01:12:30;;;;;;;4.40;3.77;;;5.50;99.90;;;;;;5035890;28;20533;-54
2023/04/05 01:14:56;;;;;;;3.70;3.17;;;5.40;99.90;;;;;;5034926;28;20447;-54
2023/04/05 01:17:27;;;;;;;5.77;3.73;;;5.30;99.90;;;;;;5035969;28;21279;-53
2023/04/05 01:19:59;;;;;;;3.87;3.10;;;5.40;99.90;;;;;;5038088;28;20181;-54
2023/04/05 01:22:50;;;;;;;5.60;3.60;;;5.40;99.90;;;;;;5042550;28;20514;-53
2023/04/05 01:25:37;;;;;;;3.53;3.23;;;5.40;99.90;;;;;;5045978;28;22142;-53
2023/04/05 01:28:39;;;;;;;4.03;3.60;;;5.40;99.90;;;;;;5036926;28;20950;-52
2023/04/05 01:31:30;;;;;;;4.50;3.67;;;5.40;99.90;;;;;;5041976;28;20500;-53
2023/04/05 01:34:11;;;;;;;6.80;4.00;;;5.50;99.90;;;;;;5042664;28;20548;-53
2023/04/05 01:36:40;;;;;;;3.30;3.00;;;5.50;99.90;;;;;;5037626;28;20421;-55
2023/04/05 01:39:09;;;;;;;4.97;3.50;;;5.50;99.90;;;;;;5046381;28;20470;-54
2023/04/05 01:41:35;;;;;;;5.80;3.50;;;5.60;99.90;;;;;;5045612;28;20876;-54
2023/04/05 01:44:00;;;;;;;4.97;3.67;;;5.60;99.90;;;;;;5042942;28;20527;-54
2023/04/05 01:46:26;;;;;;;4.90;3.80;;;5.60;99.90;;;;;;5041124;28;20505;-54
2023/04/05 01:48:51;;;;;;;4.40;2.70;;;5.60;99.90;;;;;;5041987;28;21276;-53
2023/04/05 01:51:18;;;;;;;5.40;3.47;;;5.70;99.90;;;;;;5037545;28;20224;-54
2023/04/05 01:53:44;;;;;;;4.60;3.80;;;5.80;99.90;;;;;;5040456;28;20192;-53
2023/04/05 01:56:10;;;;;;;4.00;3.00;;;5.80;99.90;;;;;;5047859;28;20450;-55
2023/04/05 01:58:35;;;;;;;4.53;4.07;;;5.70;99.90;;;;;;5041210;28;20208;-55
2023/04/05 02:01:01;;;;;;;4.83;3.50;;;5.60;99.90;;;;;;5043271;28;20188;-53
2023/04/05 02:03:26;;;;;;;4.20;3.10;;;5.60;99.90;;;;;;5043598;28;20219;-53
2023/04/05 02:05:52;;;;;;;6.13;3.40;;;5.60;99.90;;;;;;5042802;28;20187;-53
2023/04/05 02:08:18;;;;;;;4.33;3.30;;;5.60;99.90;;;;;;5042866;28;20227;-54
2023/04/05 02:10:44;;;;;;;4.90;3.87;;;5.60;99.90;;;;;;5042491;28;20192;-54
2023/04/05 02:13:10;;;;;;;5.20;3.10;;;5.60;99.90;;;;;;5044521;28;20246;-54
2023/04/05 02:15:36;;;;;;;4.70;3.20;;;5.50;99.90;;;;;;5041993;28;20905;-54
2023/04/05 02:18:02;;;;;;;6.77;3.27;;;5.50;99.90;;;;;;5044148;28;20244;-53
2023/04/05 02:20:28;;;;;;;5.10;3.17;;;5.60;99.90;;;;;;5037702;28;20483;-54
2023/04/05 02:22:55;;;;;;;4.50;3.47;;;5.50;99.90;;;;;;5042892;28;20876;-54
2023/04/05 02:25:20;;;;;;;4.20;3.00;;;5.50;99.90;;;;;;5041601;28;20923;-54
2023/04/05 02:27:46;;;;;;;4.50;3.33;;;5.50;99.90;;;;;;5039662;28;20473;-55
2023/04/05 02:30:12;;;;;;;4.53;3.07;;;5.40;99.90;;;;;;5040279;28;20262;-54
2023/04/05 02:32:42;;;;;;;4.90;3.10;;;5.40;99.90;;;;;;5042360;28;20200;-56
2023/04/05 02:35:09;;;;;;;4.17;3.13;;;5.30;99.90;;;;;;5040011;28;21093;-54
2023/04/05 02:37:35;;;;;;;4.87;3.40;;;5.30;99.90;;;;;;5037661;28;20514;-54
2023/04/05 02:40:04;;;;;;;4.60;3.80;;;5.30;99.90;;;;;;5048202;28;20482;-53
2023/04/05 02:42:29;;;;;;;7.03;3.30;;;5.40;99.90;;;;;;5048598;28;20439;-54
2023/04/05 02:44:55;;;;;;;6.53;3.17;;;5.40;99.90;;;;;;5039889;28;20446;-52
2023/04/05 02:47:21;;;;;;;6.10;3.43;;;5.40;99.90;;;;;;5040891;28;20177;-54
2023/04/05 02:49:49;;;;;;;4.43;3.20;;;5.30;99.90;;;;;;5047829;28;20195;-55
2023/04/05 02:52:15;;;;;;;3.60;3.00;;;5.50;99.90;;;;;;5043902;28;20189;-54
2023/04/05 02:54:41;;;;;;;5.50;3.60;;;5.50;99.90;;;;;;5041044;28;20501;-54
2023/04/05 02:57:10;;;;;;;5.60;4.10;;;5.50;99.90;;;;;;5043073;28;20447;-56
2023/04/05 02:59:37;;;;;;;5.70;3.30;;;5.50;99.90;;;;;;5041137;28;20440;-53
2023/04/05 03:02:06;;;;;;;4.70;3.27;;;5.60;99.90;;;;;;5042499;28;20443;-52
2023/04/05 03:04:33;;;;;;;3.83;3.00;;;5.50;99.90;;;;;;5040477;28;20533;-52
2023/04/05 03:07:01;;;;;;;4.87;3.50;;;5.50;99.90;;;;;;5042261;28;20976;-53
2023/04/05 03:09:32;;;;;;;3.93;3.50;;;5.50;99.90;;;;;;5041434;28;20443;-53
2023/04/05 03:12:03;;;;;;;5.90;4.10;;;5.50;99.90;;;;;;5041405;28;20819;-54
2023/04/05 03:14:30;;;;;;;6.50;3.43;;;5.40;99.90;;;;;;5039349;28;20461;-55
2023/04/05 03:16:56;;;;;;;4.77;3.67;;;5.40;99.90;;;;;;5043071;28;20510;-53
2023/04/05 03:19:23;;;;;;;5.57;3.83;;;5.40;99.90;;;;;;5040068;28;20470;-54
2023/04/05 03:21:49;;;;;;;7.57;3.97;;;5.40;99.90;;;;;;5038729;28;20509;-55
2023/04/05 03:24:15;;;;;;;5.10;3.87;;;5.40;99.90;;;;;;5043702;28;20443;-54
2023/04/05 03:26:45;;;;;;;4.40;3.53;;;5.30;99.90;;;;;;5048936;28;20446;-54
2023/04/05 03:29:11;;;;;;;4.67;3.73;;;5.30;99.90;;;;;;5042530;28;20801;-52
2023/04/05 03:31:37;;;;;;;4.33;3.70;;;5.40;99.90;;;;;;5046412;28;20456;-53
2023/04/05 03:34:03;;;;;;;4.30;3.63;;;5.50;99.90;;;;;;5046808;28;20447;-54
2023/04/05 03:36:49;;;;;;;10.20;4.50;;;5.40;99.90;;;;;;5038751;28;20193;-53
2023/04/05 03:39:14;;;;;;;6.57;4.00;;;5.40;99.90;;;;;;5047264;28;20216;-54
2023/04/05 03:41:40;;;;;;;5.83;3.23;;;5.50;99.90;;;;;;5044077;28;20442;-54
2023/04/05 03:44:07;;;;;;;4.57;3.60;;;5.40;99.90;;;;;;5047888;28;20184;-54
2023/04/05 03:46:33;;;;;;;4.60;3.50;;;5.40;99.90;;;;;;5049400;28;20184;-54
2023/04/05 03:48:59;;;;;;;4.40;3.40;;;5.50;99.90;;;;;;5044555;28;20458;-56
2023/04/05 03:51:26;;;;;;;7.23;4.23;;;5.50;99.90;;;;;;5035572;28;20450;-55
2023/04/05 03:53:51;;;;;;;3.63;3.27;;;5.50;99.90;;;;;;5034980;28;20483;-54
2023/04/05 03:56:17;;;;;;;8.53;3.50;;;5.40;99.90;;;;;;5032608;28;20454;-56
2023/04/05 03:58:43;;;;;;;4.37;3.60;;;5.30;99.90;;;;;;5037215;28;20208;-54
2023/04/05 04:01:09;;;;;;;7.43;3.63;;;5.40;99.90;;;;;;5037568;28;20454;-54
2023/04/05 04:03:38;;;;;;;3.90;3.40;;;5.30;99.90;;;;;;5038437;28;20451;-54
2023/04/05 04:06:05;;;;;;;5.27;3.57;;;5.30;99.90;;;;;;5036813;28;20197;-56
2023/04/05 04:08:31;;;;;;;3.97;3.53;;;5.30;99.90;;;;;;5036019;28;21068;-54
2023/04/05 04:10:56;;;;;;;4.07;3.60;;;5.30;99.90;;;;;;5041980;28;20534;-56
2023/04/05 04:13:22;;;;;;;4.50;4.10;;;5.30;99.90;;;;;;5052521;28;20192;-53
2023/04/05 04:15:48;;;;;;;5.57;3.50;;;5.30;99.90;;;;;;5046374;28;20247;-55
2023/04/05 04:18:13;;;;;;;3.80;3.40;;;5.20;99.90;;;;;;5050476;28;20216;-54
2023/04/05 04:20:39;;;;;;;4.33;3.93;;;5.20;99.90;;;;;;5047246;28;20647;-54
2023/04/05 04:23:08;;;;;;;8.30;4.37;;;5.20;99.90;;;;;;5043874;28;20258;-54
2023/04/05 04:25:35;;;;;;;4.30;3.60;;;5.20;99.90;;;;;;5045449;28;20688;-54
2023/04/05 04:28:03;;;;;;;5.97;5.07;;;5.20;99.90;;;;;;5048472;28;20513;-54
2023/04/05 04:30:29;;;;;;;7.90;4.10;;;5.20;99.90;;;;;;5044746;28;21147;-54
2023/04/05 04:32:55;;;;;;;7.13;3.90;;;5.20;99.90;;;;;;5050396;28;20447;-54
2023/04/05 04:35:26;;;;;;;5.33;4.40;;;5.20;99.90;;;;;;5046091;28;20550;-56
2023/04/05 04:37:53;;;;;;;4.53;4.13;;;5.20;99.90;;;;;;5048304;28;20474;-54
2023/04/05 04:40:21;;;;;;;5.93;3.50;;;5.30;99.90;;;;;;5037722;28;20451;-54
2023/04/05 04:42:47;;;;;;;4.03;3.63;;;5.40;99.90;;;;;;5047879;28;20459;-53
2023/04/05 04:45:18;;;;;;;6.53;4.27;;;5.30;99.90;;;;;;5047323;28;20945;-54
2023/04/05 04:47:45;;;;;;;6.80;4.87;;;5.30;99.90;;;;;;5046924;28;21008;-55
2023/04/05 04:50:12;;;;;;;4.33;3.30;;;5.30;99.90;;;;;;5044225;28;20524;-54
2023/04/05 04:52:39;;;;;;;5.10;3.50;;;5.30;99.90;;;;;;5048339;28;20983;-55
2023/04/05 04:55:09;;;;;;;4.90;3.83;;;5.20;99.90;;;;;;5051612;28;20776;-55
2023/04/05 04:57:35;;;;;;;5.57;4.60;;;5.20;99.90;;;;;;5045800;28;20911;-53
2023/04/05 05:00:01;;;;;;;7.23;5.30;;;5.20;99.90;;;;;;5049696;28;20978;-54
2023/04/05 05:02:27;;;;;;;9.07;4.47;;;5.20;99.90;;;;;;5045900;28;20542;-54
2023/04/05 05:04:53;;;;;;;5.73;4.00;;;5.10;99.90;;;;;;5054256;28;20349;-54
2023/04/05 05:07:19;;;;;;;6.00;4.70;;;5.10;99.90;;;;;;5051637;28;20447;-54
2023/04/05 05:09:46;;;;;;;7.57;5.33;;;5.20;99.90;;;;;;5049575;28;20205;-54
2023/04/05 05:12:12;;;;;;;8.23;5.70;;;5.10;99.90;;;;;;5052097;28;20796;-54
2023/04/05 05:14:38;;;;;;;8.13;5.77;;;5.10;99.90;;;;;;5050815;28;20503;-54
2023/04/05 05:17:05;;;;;;;9.50;5.70;;;5.10;99.90;;;;;;5055091;28;20189;-55
2023/04/05 05:19:31;;;;;;;7.50;4.40;;;5.20;99.90;;;;;;5071187;28;20272;-53
2023/04/05 05:21:56;;;;;;;9.13;5.10;;;5.10;99.90;;;;;;5046709;28;20443;-54
2023/04/05 05:24:22;;;;;;;7.20;5.20;;;5.20;99.90;;;;;;5038951;28;20654;-55
2023/04/05 05:26:48;;;;;;;7.73;5.13;;;5.00;99.90;;;;;;5045957;28;20193;-55
2023/04/05 05:29:13;;;;;;;11.87;7.00;;;5.00;99.90;;;;;;5045235;28;20962;-55
2023/04/05 05:31:39;;;;;;;7.53;6.00;;;5.10;99.90;;;;;;5046500;28;20986;-54
2023/04/05 05:34:08;;;;;;;16.40;6.50;;;5.00;99.90;;;;;;5043721;28;20195;-54
2023/04/05 05:36:34;;;;;;;13.00;6.27;;;5.00;99.90;;;;;;5050969;28;21131;-54
2023/04/05 05:39:00;;;;;;;8.17;7.40;;;5.00;99.90;;;;;;5040743;28;20471;-53
2023/04/05 05:41:25;;;;;;;10.17;5.80;;;5.00;99.90;;;;;;5045469;28;20497;-54
2023/04/05 05:43:52;;;;;;;12.00;7.63;;;5.10;99.90;;;;;;5044162;28;20196;-54
2023/04/05 05:46:19;;;;;;;12.10;6.20;;;5.30;99.90;;;;;;5043386;28;20559;-53
2023/04/05 05:48:44;;;;;;;7.57;5.77;;;5.20;99.90;;;;;;5046407;28;20509;-52
2023/04/05 05:51:10;;;;;;;6.20;5.60;;;5.20;99.90;;;;;;5044195;28;20443;-54
2023/04/05 05:53:36;;;;;;;9.07;6.20;;;5.20;99.90;;;;;;5043491;28;20648;-55
2023/04/05 05:56:02;;;;;;;8.80;5.80;;;5.30;99.90;;;;;;5044482;28;20291;-55
2023/04/05 05:58:28;;;;;;;7.67;5.30;;;5.40;99.90;;;;;;5047904;28;20549;-54
2023/04/05 06:00:57;;;;;;;9.50;6.60;;;5.40;99.90;;;;;;5058686;28;20649;-55
2023/04/05 06:03:28;;;;;;;7.03;5.67;;;5.30;99.90;;;;;;5054754;28;20185;-53
2023/04/05 06:05:56;;;;;;;7.90;5.47;;;5.50;99.90;;;;;;5058789;28;20770;-54
2023/04/05 06:08:22;;;;;;;8.80;6.10;;;5.60;99.90;;;;;;5048523;28;20899;-52
2023/04/05 06:10:49;;;;;;;5.83;5.13;;;5.70;99.90;;;;;;5040344;28;20547;-54
2023/04/05 06:13:15;;;;;;;8.00;5.20;;;5.80;99.90;;;;;;5044487;28;20596;-54
2023/04/05 06:15:42;;;;;;;10.03;5.27;;;5.80;99.90;;;;;;5045924;28;21038;-53
2023/04/05 06:18:08;;;;;;;11.80;5.40;;;5.90;99.90;;;;;;5049867;28;20480;-54
2023/04/05 06:20:34;;;;;;;6.90;5.87;;;5.90;99.90;;;;;;5046966;28;20451;-52
2023/04/05 06:23:00;;;;;;;11.33;6.50;;;6.00;99.90;;;;;;5051609;28;20194;-55
2023/04/05 06:25:25;;;;;;;6.30;5.70;;;6.20;99.90;;;;;;5044683;28;20447;-52
2023/04/05 06:27:51;;;;;;;6.70;5.80;;;6.30;99.90;;;;;;5047692;28;20830;-54
2023/04/05 06:30:17;;;;;;;8.50;6.73;;;6.30;99.90;;;;;;5041876;28;20620;-53
2023/04/05 06:32:42;;;;;;;12.87;7.30;;;6.00;99.90;;;;;;5046851;28;20239;-54
2023/04/05 06:35:08;;;;;;;9.73;6.70;;;6.20;99.90;;;;;;5048633;28;20192;-53
2023/04/05 06:37:34;;;;;;;5.93;5.33;;;6.30;99.90;;;;;;5050998;28;20298;-54
2023/04/05 06:40:00;;;;;;;7.90;5.50;;;6.50;99.90;;;;;;5045902;28;20230;-54
2023/04/05 06:42:25;;;;;;;8.60;6.33;;;6.60;99.90;;;;;;5048458;28;20185;-53
2023/04/05 06:44:51;;;;;;;6.60;5.90;;;6.70;99.90;;;;;;5047173;28;20181;-54
2023/04/05 06:47:16;;;;;;;9.80;5.43;;;6.70;99.90;;;;;;5046351;28;20250;-55
2023/04/05 06:49:42;;;;;;;8.73;4.90;;;6.80;99.90;;;;;;5040143;28;20776;-54
2023/04/05 06:52:08;;;;;;;9.20;5.70;;;7.00;99.90;;;;;;5046670;28;20276;-55
2023/04/05 06:54:36;;;;;;;5.93;4.33;;;7.10;99.90;;;;;;5046947;28;20248;-54
2023/04/05 06:57:01;;;;;;;9.27;5.93;;;7.10;99.90;;;;;;5049309;28;20853;-54
2023/04/05 06:59:31;;;;;;;8.07;5.33;;;7.30;99.90;;;;;;5046386;28;20483;-54
2023/04/05 07:01:58;;;;;;;6.40;5.17;;;7.40;99.90;;;;;;5043380;28;20204;-58
2023/04/05 07:04:25;;;;;;;6.40;5.03;;;7.40;99.90;;;;;;5045436;28;20762;-52
2023/04/05 07:06:52;;;;;;;8.37;4.70;;;7.50;99.90;;;;;;5045006;28;20187;-54
2023/04/05 07:09:19;;;;;;;6.50;4.97;;;7.50;99.90;;;;;;5042827;28;20455;-53
2023/04/05 07:11:45;;;;;;;9.17;5.27;;;7.30;99.90;;;;;;5045253;28;20462;-54
2023/04/05 07:14:10;;;;;;;10.00;5.60;;;7.40;99.90;;;;;;5048309;28;20489;-54
2023/04/05 07:16:36;;;;;;;6.23;4.60;;;7.60;99.90;;;;;;5047920;28;20247;-55
2023/04/05 07:19:04;;;;;;;6.20;3.80;;;7.80;99.90;;;;;;5048498;28;20732;-53
2023/04/05 07:21:30;;;;;;;6.33;5.20;;;7.80;99.90;;;;;;5043421;28;20185;-54
2023/04/05 07:23:59;;;;;;;6.17;4.97;;;7.70;99.90;;;;;;5039835;28;21010;-55
2023/04/05 07:26:26;;;;;;;6.50;5.07;;;7.90;99.90;;;;;;5045324;28;20647;-54
2023/04/05 07:28:51;;;;;;;9.10;5.13;;;8.00;99.90;;;;;;5053613;28;21151;-53
2023/04/05 07:31:17;;;;;;;7.07;5.00;;;8.10;99.90;;;;;;5047101;28;20446;-54
2023/04/05 07:33:42;;;;;;;7.40;4.90;;;8.20;99.90;;;;;;5041824;28;20184;-55
2023/04/05 07:36:08;;;;;;;5.70;4.03;;;8.20;99.90;;;;;;5044382;28;20215;-54
2023/04/05 07:38:34;;;;;;;7.20;4.37;;;8.20;99.90;;;;;;5040280;28;20307;-53
2023/04/05 07:40:59;;;;;;;4.90;3.50;;;8.20;99.90;;;;;;5048535;28;20214;-54
2023/04/05 07:43:25;;;;;;;6.60;4.70;;;8.00;99.90;;;;;;5046471;28;20200;-53
2023/04/05 07:45:52;;;;;;;8.00;5.00;;;8.10;99.90;;;;;;5042090;28;20224;-52
2023/04/05 07:48:19;;;;;;;5.57;4.53;;;8.40;99.90;;;;;;5043566;28;20214;-56
2023/04/05 07:50:46;;;;;;;4.30;3.90;;;8.50;99.90;;;;;;5046600;28;20454;-54
2023/04/05 07:53:13;;;;;;;5.33;4.40;;;8.60;99.90;;;;;;5048252;28;20467;-53
2023/04/05 07:55:38;;;;;;;5.77;4.40;;;8.30;99.90;;;;;;5039397;28;20490;-53
2023/04/05 07:58:04;;;;;;;4.97;4.00;;;8.40;99.90;;;;;;5047474;28;20790;-53
2023/04/05 08:00:30;;;;;;;3.67;3.23;;;8.40;99.90;;;;;;5044879;28;20692;-55
2023/04/05 08:02:55;;;;;;;3.83;3.43;;;8.80;99.90;;;;;;5043798;28;20271;-55
2023/04/05 08:05:21;;;;;;;5.47;3.80;;;8.80;99.90;;;;;;5040311;28;20169;-55
2023/04/05 08:07:46;;;;;;;6.20;3.57;;;9.10;99.90;;;;;;5045103;28;20699;-54
2023/04/05 08:10:12;;;;;;;3.60;3.30;;;9.30;99.90;;;;;;5040331;28;20215;-55
2023/04/05 08:12:37;;;;;;;4.37;3.97;;;9.40;99.90;;;;;;5043065;28;20271;-54
2023/04/05 08:15:03;;;;;;;5.90;4.17;;;9.40;99.90;;;;;;5043412;28;20192;-55
2023/04/05 08:17:29;;;;;;;5.07;3.87;;;9.40;99.90;;;;;;5038796;28;20211;-53
2023/04/05 08:19:55;;;;;;;5.90;3.70;;;9.60;99.90;;;;;;5040699;28;20449;-54
2023/04/05 08:22:20;;;;;;;5.73;3.47;;;9.90;99.90;;;;;;5036684;28;20387;-55
2023/04/05 08:24:46;;;;;;;6.03;3.70;;;9.90;99.90;;;;;;5051065;28;20661;-55
2023/04/05 08:27:12;;;;;;;4.80;3.93;;;9.90;99.90;;;;;;5045190;28;20208;-54
2023/04/05 08:29:37;;;;;;;4.27;3.83;;;9.70;99.90;;;;;;5047260;28;20215;-55
2023/04/05 08:32:03;;;;;;;8.47;4.13;;;9.80;99.90;;;;;;5053991;28;20184;-55
2023/04/05 08:34:29;;;;;;;4.23;3.83;;;10.00;99.90;;;;;;5046403;28;20188;-54
2023/04/05 08:36:58;;;;;;;7.37;4.10;;;10.40;99.90;;;;;;5043078;28;20443;-55
2023/04/05 08:39:25;;;;;;;3.80;3.50;;;10.30;99.90;;;;;;5041705;28;20196;-55
2023/04/05 08:42:10;;;;;;;7.33;3.93;;;10.30;99.90;;;;;;5044412;28;20552;-55
2023/04/05 08:44:36;;;;;;;5.30;4.20;;;10.60;99.90;;;;;;5049653;28;20456;-54
2023/04/05 08:47:02;;;;;;;6.17;3.90;;;10.30;99.90;;;;;;5046716;28;20561;-55
2023/04/05 08:49:27;;;;;;;4.77;3.77;;;9.70;99.90;;;;;;5049328;28;20996;-53
2023/04/05 08:51:54;;;;;;;6.70;5.60;;;9.70;99.90;;;;;;5042328;28;20276;-54
2023/04/05 08:54:20;;;;;;;4.90;3.93;;;9.70;99.90;;;;;;5048704;28;20220;-53
2023/04/05 08:56:48;;;;;;;5.70;3.50;;;9.50;99.90;;;;;;5049459;28;20497;-54
2023/04/05 08:59:16;;;;;;;5.97;3.47;;;9.40;99.90;;;;;;5043277;28;20244;-55
2023/04/05 09:01:43;;;;;;;3.93;3.60;;;9.40;99.90;;;;;;5044645;28;20443;-53
2023/04/05 09:04:23;;;;;;;7.93;5.67;;;9.40;99.90;;;;;;5045131;28;20509;-54
2023/04/05 09:06:50;;;;;;;4.40;3.30;;;9.30;99.90;;;;;;5049435;28;20425;-54
2023/04/05 09:09:17;;;;;;;5.80;3.83;;;9.20;99.90;;;;;;5051770;28;20488;-53
2023/04/05 09:11:43;;;;;;;4.43;3.30;;;8.90;99.90;;;;;;5032769;28;20431;-54
2023/04/05 09:14:10;;;;;;;3.90;3.50;;;8.70;99.90;;;;;;5051777;28;20438;-54
2023/04/05 09:16:37;;;;;;;6.43;3.67;;;8.60;99.90;;;;;;5058092;28;20730;-55
2023/04/05 09:19:03;;;;;;;4.77;3.80;;;8.60;99.90;;;;;;5071251;28;20951;-55
2023/04/05 09:21:29;;;;;;;5.30;4.33;;;8.70;99.90;;;;;;5071707;28;20539;-55
2023/04/05 09:23:55;;;;;;;6.07;3.40;;;8.80;99.90;;;;;;5071209;28;20434;-54
2023/04/05 09:26:24;;;;;;;6.33;3.93;;;9.10;99.90;;;;;;5071265;28;20224;-55
2023/04/05 09:28:50;;;;;;;4.93;3.23;;;9.30;99.90;;;;;;5062029;28;20443;-54
2023/04/05 09:31:34;;;;;;;5.77;3.33;;;9.20;99.90;;;;;;5049139;28;20528;-54
2023/04/05 09:34:02;;;;;;;7.10;3.10;;;9.10;99.90;;;;;;5051050;28;20445;-55
2023/04/05 09:36:28;;;;;;;6.47;4.17;;;9.30;99.90;;;;;;5051106;28;20522;-56
2023/04/05 09:39:07;;;;;;;5.17;3.77;;;9.60;99.90;;;;;;5051172;28;21046;-54
2023/04/05 09:41:34;;;;;;;7.27;3.90;;;9.90;99.90;;;;;;5050942;28;20184;-55
2023/04/05 09:44:00;;;;;;;5.00;3.20;;;10.30;99.90;;;;;;5051046;28;20441;-55
2023/04/05 09:46:31;;;;;;;6.80;3.10;;;11.20;99.90;;;;;;5049418;28;20447;-55
2023/04/05 09:48:56;;;;;;;4.67;3.73;;;11.90;99.90;;;;;;5050664;28;20863;-55
2023/04/05 09:51:22;;;;;;;6.50;3.47;;;11.70;99.90;;;;;;5050972;28;20521;-54
2023/04/05 09:54:05;;;;;;;4.80;3.17;;;11.50;99.90;;;;;;5050534;28;20216;-55
2023/04/05 09:56:39;;;;;;;3.67;3.37;;;11.30;99.90;;;;;;5049548;28;20216;-54
2023/04/05 09:59:10;;;;;;;4.17;3.07;;;11.40;99.90;;;;;;5050622;28;20473;-54
2023/04/05 10:01:37;;;;;;;7.90;3.70;;;11.10;99.90;;;;;;5048739;28;20446;-55
2023/04/05 10:04:02;;;;;;;4.77;3.27;;;10.90;99.90;;;;;;5049990;28;20454;-54
2023/04/05 10:06:38;;;;;;;4.47;2.80;;;10.80;99.90;;;;;;5050421;28;20435;-56
2023/04/05 10:09:13;;;;;;;3.40;2.87;;;10.80;99.90;;;;;;5050247;28;20188;-57
2023/04/05 10:11:42;;;;;;;4.27;3.70;;;10.80;99.90;;;;;;5050840;28;20532;-56
2023/04/05 10:14:08;;;;;;;4.83;2.80;;;10.90;99.90;;;;;;5050177;28;20577;-55
2023/04/05 10:17:03;;;;;;;4.40;2.80;;;10.50;99.90;;;;;;5050125;28;20530;-54
2023/04/05 10:19:55;;;;;;;5.07;3.50;;;10.10;99.90;;;;;;5048616;28;20196;-55
2023/04/05 10:22:54;;;;;;;4.60;2.90;;;10.00;99.90;;;;;;5049822;28;20463;-53
2023/04/05 10:26:07;;;;;;;9.57;3.37;;;10.10;99.90;;;;;;5048627;28;20451;-53
2023/04/05 10:28:34;;;;;;;5.50;3.03;;;10.30;99.90;;;;;;5027098;28;20464;-54
2023/04/05 10:31:32;;;;;;;5.73;3.23;;;10.80;99.90;;;;;;5045300;28;20447;-55
2023/04/05 10:34:02;;;;;;;7.60;3.10;;;10.90;99.90;;;;;;5048509;28;20447;-55
2023/04/05 10:36:52;;;;;;;3.30;3.00;;;11.40;99.90;;;;;;5049917;28;20581;-53
2023/04/05 10:39:33;;;;;;;4.20;3.27;;;11.50;99.90;;;;;;5048196;28;20491;-54
2023/04/05 10:42:04;;;;;;;4.63;3.40;;;11.10;99.90;;;;;;5049527;28;20433;-56
2023/04/05 10:44:32;;;;;;;5.73;3.30;;;10.90;99.90;;;;;;5049646;28;20492;-55
2023/04/05 10:46:57;;;;;;;3.40;2.93;;;11.10;99.90;;;;;;5049538;28;23315;-55
2023/04/05 10:49:26;;;;;;;5.70;3.30;;;11.40;99.90;;;;;;5048757;28;20549;-55
2023/04/05 10:51:53;;;;;;;4.80;3.93;;;11.10;99.90;;;;;;5049615;28;20493;-56
2023/04/05 10:54:19;;;;;;;4.23;3.40;;;10.80;99.90;;;;;;5049289;28;20859;-55
2023/04/05 10:56:45;;;;;;;5.00;3.37;;;10.70;99.90;;;;;;5049455;28;20819;-54
2023/04/05 10:59:12;;;;;;;4.03;3.53;;;10.60;99.90;;;;;;5049020;28;20561;-55
2023/04/05 11:01:39;;;;;;;3.90;3.40;;;10.20;99.90;;;;;;5049439;28;20430;-53
2023/04/05 11:04:15;;;;;;;4.93;3.03;;;10.00;99.90;;;;;;5045939;28;20881;-54
2023/04/05 11:06:47;;;;;;;2.60;2.40;;;10.00;99.90;;;;;;5049331;28;20442;-55
2023/04/05 11:09:19;;;;;;;5.00;2.73;;;9.70;99.90;;;;;;5066754;28;20438;-56
2023/04/05 11:11:47;;;;;;;2.80;2.30;;;9.80;99.90;;;;;;5068997;28;20449;-54
2023/04/05 11:14:37;;;;;;;3.63;2.80;;;9.70;99.90;;;;;;5069058;28;20426;-53
2023/04/05 11:17:12;;;;;;;3.13;2.60;;;10.20;99.90;;;;;;5066487;28;20445;-54
2023/04/05 11:19:44;;;;;;;3.50;2.70;;;10.30;99.90;;;;;;5053178;28;20479;-54
2023/04/05 11:22:11;;;;;;;2.80;2.53;;;10.50;99.90;;;;;;5049307;28;20443;-53
2023/04/05 11:25:00;;;;;;;4.20;2.70;;;10.80;99.90;;;;;;5049193;28;20876;-55
2023/04/05 11:27:28;;;;;;;3.00;2.80;;;10.70;99.90;;;;;;5049386;28;20493;-55
2023/04/05 11:29:54;;;;;;;4.43;2.60;;;10.40;99.90;;;;;;5049037;28;20441;-55
2023/04/05 11:32:21;;;;;;;2.93;2.63;;;10.10;99.90;;;;;;5047229;28;20443;-55
2023/04/05 11:35:12;;;;;;;11.77;3.83;;;10.10;99.90;;;;;;5049065;28;20923;-53
2023/04/05 11:37:59;;;;;;;4.63;2.93;;;10.20;99.90;;;;;;5044837;28;20974;-55
2023/04/05 11:40:30;;;;;;;3.30;2.83;;;10.30;99.90;;;;;;5048868;28;20488;-54
2023/04/05 11:43:08;;;;;;;4.70;2.90;;;10.10;99.90;;;;;;5048506;28;20978;-55
2023/04/05 11:45:36;;;;;;;4.17;2.83;;;9.90;99.90;;;;;;5048750;28;20438;-55
2023/04/05 11:48:07;;;;;;;5.00;2.97;;;9.70;99.90;;;;;;5048731;28;20521;-55
2023/04/05 11:50:35;;;;;;;4.73;2.50;;;9.80;99.90;;;;;;5051437;28;20434;-54
2023/04/05 11:53:15;;;;;;;4.07;2.73;;;10.20;99.90;;;;;;5053587;28;20446;-54
2023/04/05 11:55:51;;;;;;;2.63;2.37;;;10.70;99.90;;;;;;5068533;28;20458;-55
2023/04/05 11:58:27;;;;;;;4.37;2.60;;;11.00;99.90;;;;;;5068786;28;20458;-54
2023/04/05 12:01:03;;;;;;;5.80;2.77;;;11.10;99.90;;;;;;5068858;28;20457;-54
2023/04/05 12:03:30;;;;;;;3.57;2.23;;;11.50;99.90;;;;;;5068672;28;20429;-54
2023/04/05 12:05:57;;;;;;;4.10;2.67;;;11.70;99.90;;;;;;5048086;28;20438;-56
2023/04/05 12:08:40;;;;;;;2.90;2.43;;;11.90;99.90;;;;;;5044596;28;20449;-54
2023/04/05 12:11:08;;;;;;;3.43;2.77;;;12.30;99.90;;;;;;5048494;28;20458;-55
2023/04/05 12:13:34;;;;;;;2.90;2.70;;;12.40;99.90;;;;;;5048569;28;20770;-55
2023/04/05 12:16:04;;;;;;;4.43;3.07;;;12.50;99.90;;;;;;5057121;28;20446;-55
2023/04/05 12:18:35;;;;;;;3.70;2.73;;;12.40;99.90;;;;;;5068949;28;20560;-57
2023/04/05 12:21:03;;;;;;;5.67;3.60;;;11.80;99.90;;;;;;5068368;28;20450;-54
2023/04/05 12:23:30;;;;;;;5.23;3.50;;;11.50;99.90;;;;;;5052243;28;20522;-56
2023/04/05 12:25:56;;;;;;;4.93;2.90;;;11.60;99.90;;;;;;5052690;28;20446;-53
2023/04/05 12:28:23;;;;;;;2.83;2.57;;;11.20;99.90;;;;;;5071936;28;20525;-54
2023/04/05 12:30:55;;;;;;;3.03;2.73;;;10.80;99.90;;;;;;5072133;28;20524;-55
2023/04/05 12:33:34;;;;;;;3.40;2.40;;;10.60;99.90;;;;;;5072188;28;20953;-54
2023/04/05 12:36:04;;;;;;;2.93;2.33;;;10.90;99.90;;;;;;5065849;28;20985;-55
2023/04/05 12:38:30;;;;;;;3.10;2.80;;;11.10;99.90;;;;;;5051005;28;20474;-56
2023/04/05 12:40:59;;;;;;;3.17;2.70;;;11.30;99.90;;;;;;5052377;28;20435;-54
2023/04/05 12:43:25;;;;;;;2.97;2.67;;;11.30;99.90;;;;;;5052093;28;20181;-53
2023/04/05 12:45:55;;;;;;;5.00;3.50;;;11.10;99.90;;;;;;5052024;28;20521;-55
2023/04/05 12:48:24;;;;;;;3.23;2.70;;;11.00;99.90;;;;;;5051912;28;20216;-55
2023/04/05 12:50:53;;;;;;;2.97;2.70;;;10.70;99.90;;;;;;5051965;28;20442;-53
2023/04/05 12:53:27;;;;;;;5.10;3.13;;;10.90;99.90;;;;;;5051066;28;20753;-54
2023/04/05 12:55:54;;;;;;;2.83;2.60;;;11.40;99.90;;;;;;5052198;28;20458;-54
2023/04/05 12:58:22;;;;;;;7.27;2.90;;;11.70;99.90;;;;;;5052009;28;20467;-56
2023/04/05 13:00:48;;;;;;;3.70;2.57;;;12.00;99.90;;;;;;5051953;28;20438;-53